createdAt,value
2023-02-11T00:01:27.386Z,80.60
2023-02-11T00:03:59.084Z,81.40
2023-02-11T00:06:27.999Z,81.50
2023-02-11T00:08:56.123Z,81.80
2023-02-11T00:11:26.493Z,82.10
2023-02-11T00:13:53.845Z,82.50
2023-02-11T00:16:21.381Z,82.90
2023-02-11T00:18:50.196Z,83.30
2023-02-11T00:21:20.379Z,82.80
2023-02-11T00:23:48.168Z,83.70
2023-02-11T00:26:28.045Z,84.00
2023-02-11T00:28:55.219Z,84.20
2023-02-11T00:31:24.149Z,84.50
2023-02-11T00:33:51.806Z,84.60
2023-02-11T00:36:25.183Z,84.80
2023-02-11T00:38:54.539Z,85.00
2023-02-11T00:41:22.336Z,85.30
2023-02-11T00:43:50.245Z,85.40
2023-02-11T00:46:19.919Z,85.50
2023-02-11T00:48:47.154Z,85.50
2023-02-11T00:51:14.528Z,85.40
2023-02-11T00:53:41.744Z,85.40
2023-02-11T00:56:09.054Z,85.50
2023-02-11T00:58:37.584Z,85.80
2023-02-11T01:01:05.483Z,86.10
2023-02-11T01:03:32.748Z,86.50
2023-02-11T01:06:00.206Z,86.80
2023-02-11T01:08:27.524Z,87.20
2023-02-11T01:11:07.414Z,87.40
2023-02-11T01:13:37.240Z,87.60
2023-02-11T01:16:07.612Z,87.70
2023-02-11T01:18:35.706Z,87.80
2023-02-11T01:21:03.168Z,87.90
2023-02-11T01:23:30.331Z,88.10
2023-02-11T01:25:57.524Z,88.40
2023-02-11T01:28:26.874Z,88.70
2023-02-11T01:30:54.481Z,89.00
2023-02-11T01:33:23.137Z,89.00
2023-02-11T01:35:50.874Z,89.00
2023-02-11T01:38:26.080Z,88.80
2023-02-11T01:40:58.644Z,88.00
2023-02-11T01:43:30.461Z,88.80
2023-02-11T01:46:20.224Z,88.90
2023-02-11T01:48:51.201Z,89.10
2023-02-11T01:51:31.175Z,88.60
2023-02-11T01:54:18.792Z,89.50
2023-02-11T01:57:08.700Z,89.40
2023-02-11T01:59:47.595Z,89.50
2023-02-11T02:02:20.378Z,89.80
2023-02-11T02:04:57.422Z,90.00
2023-02-11T02:07:44.920Z,90.00
2023-02-11T02:10:18.801Z,90.00
2023-02-11T02:12:46.794Z,90.10
2023-02-11T02:15:27.322Z,90.20
2023-02-11T02:18:00.624Z,90.20
2023-02-11T02:21:03.214Z,90.00
2023-02-11T02:23:42.772Z,90.40
2023-02-11T02:26:46.697Z,90.30
2023-02-11T02:29:47.607Z,90.50
2023-02-11T02:33:21.937Z,90.60
2023-02-11T02:35:52.424Z,90.60
2023-02-11T02:38:36.105Z,90.60
2023-02-11T02:41:13.506Z,90.70
2023-02-11T02:43:44.666Z,90.70
2023-02-11T02:46:18.563Z,90.80
2023-02-11T02:48:49.356Z,90.90
2023-02-11T02:51:35.800Z,90.90
2023-02-11T02:54:23.129Z,91.00
2023-02-11T02:57:07.341Z,91.10
2023-02-11T02:59:48.955Z,91.20
2023-02-11T03:02:57.091Z,91.20
2023-02-11T03:06:04.239Z,91.30
2023-02-11T03:08:38.961Z,91.40
2023-02-11T03:11:07.551Z,91.50
2023-02-11T03:13:37.387Z,91.50
2023-02-11T03:16:25.110Z,91.50
2023-02-11T03:19:13.669Z,91.60
2023-02-11T03:21:43.272Z,91.70
2023-02-11T03:24:34.215Z,91.80
2023-02-11T03:27:19.945Z,91.80
2023-02-11T03:29:59.247Z,91.80
2023-02-11T03:32:35.461Z,91.80
2023-02-11T03:35:10.147Z,91.80
2023-02-11T03:37:55.937Z,91.80
2023-02-11T03:40:29.633Z,91.90
2023-02-11T03:43:00.927Z,92.00
2023-02-11T03:45:28.988Z,92.20
2023-02-11T03:48:05.482Z,92.30
2023-02-11T03:50:36.090Z,92.20
2023-02-11T03:53:04.351Z,92.10
2023-02-11T03:55:36.702Z,91.90
2023-02-11T03:58:03.975Z,91.80
2023-02-11T04:00:33.775Z,91.70
2023-02-11T04:03:01.227Z,91.70
2023-02-11T04:05:28.554Z,91.60
2023-02-11T04:07:55.786Z,91.50
2023-02-11T04:10:23.040Z,91.20
2023-02-11T04:12:50.321Z,91.50
2023-02-11T04:15:17.662Z,91.50
2023-02-11T04:17:44.859Z,91.50
2023-02-11T04:20:12.306Z,91.20
2023-02-11T04:22:39.687Z,91.60
2023-02-11T04:25:07.587Z,91.60
2023-02-11T04:27:34.865Z,91.60
2023-02-11T04:30:02.562Z,91.60
2023-02-11T04:32:29.765Z,91.50
2023-02-11T04:34:56.978Z,91.50
2023-02-11T04:37:24.136Z,91.50
2023-02-11T04:39:51.320Z,91.50
2023-02-11T04:42:18.487Z,91.50
2023-02-11T04:44:45.656Z,91.80
2023-02-11T04:47:15.192Z,91.50
2023-02-11T04:49:42.517Z,91.50
2023-02-11T04:52:09.904Z,91.50
2023-02-11T04:54:37.250Z,91.50
2023-02-11T04:57:04.448Z,91.50
2023-02-11T04:59:31.702Z,91.50
2023-02-11T05:01:58.968Z,91.50
2023-02-11T05:04:26.203Z,91.50
2023-02-11T05:06:53.422Z,91.40
2023-02-11T05:09:20.692Z,91.40
2023-02-11T05:11:48.612Z,91.40
2023-02-11T05:14:15.753Z,91.50
2023-02-11T05:16:43.058Z,91.40
2023-02-11T05:19:10.368Z,91.40
2023-02-11T05:21:37.587Z,91.40
2023-02-11T05:24:05.145Z,91.40
2023-02-11T05:26:32.679Z,91.40
2023-02-11T05:28:59.846Z,91.40
2023-02-11T05:31:27.116Z,91.50
2023-02-11T05:33:54.298Z,91.50
2023-02-11T05:36:21.645Z,91.50
2023-02-11T05:38:48.971Z,91.40
2023-02-11T05:41:16.708Z,91.50
2023-02-11T05:43:43.942Z,91.50
2023-02-11T05:46:11.114Z,91.50
2023-02-11T05:48:38.321Z,91.50
2023-02-11T05:51:05.616Z,91.50
2023-02-11T05:53:32.792Z,91.50
2023-02-11T05:56:00.215Z,91.50
2023-02-11T05:58:27.550Z,91.50
2023-02-11T06:00:54.757Z,91.60
2023-02-11T06:03:21.988Z,91.50
2023-02-11T06:05:49.531Z,91.60
2023-02-11T06:08:16.955Z,91.60
2023-02-11T06:10:46.986Z,91.60
2023-02-11T06:13:14.265Z,91.50
2023-02-11T06:15:41.463Z,91.60
2023-02-11T06:18:09.573Z,92.00
2023-02-11T06:20:37.317Z,91.50
2023-02-11T06:23:04.426Z,91.60
2023-02-11T06:25:31.747Z,91.50
2023-02-11T06:27:58.991Z,91.50
2023-02-11T06:30:26.198Z,91.50
2023-02-11T06:32:54.652Z,91.50
2023-02-11T06:35:21.821Z,91.40
2023-02-11T06:37:49.666Z,91.50
2023-02-11T06:40:16.991Z,91.40
2023-02-11T06:42:44.353Z,91.30
2023-02-11T06:45:13.178Z,91.30
2023-02-11T06:47:40.781Z,91.30
2023-02-11T06:50:10.661Z,91.40
2023-02-11T06:52:37.976Z,91.50
2023-02-11T06:55:05.491Z,91.70
2023-02-11T06:57:32.814Z,91.80
2023-02-11T06:59:59.964Z,91.80
2023-02-11T07:02:27.238Z,91.90
2023-02-11T07:04:54.417Z,91.90
2023-02-11T07:07:21.621Z,91.90
2023-02-11T07:09:48.900Z,92.00
2023-02-11T07:12:16.110Z,92.00
2023-02-11T07:14:43.258Z,92.10
2023-02-11T07:17:11.394Z,92.10
2023-02-11T07:19:38.625Z,92.20
2023-02-11T07:22:05.912Z,92.20
2023-02-11T07:24:33.084Z,92.20
2023-02-11T07:27:00.252Z,92.20
2023-02-11T07:29:27.521Z,92.20
2023-02-11T07:31:54.683Z,92.20
2023-02-11T07:34:21.947Z,92.10
2023-02-11T07:36:49.489Z,92.00
2023-02-11T07:39:16.697Z,91.90
2023-02-11T07:41:47.641Z,91.90
2023-02-11T07:44:15.330Z,91.90
2023-02-11T07:46:44.667Z,91.80
2023-02-11T07:49:12.276Z,91.70
2023-02-11T07:51:39.602Z,91.60
2023-02-11T07:54:07.552Z,91.50
2023-02-11T07:56:34.767Z,91.40
2023-02-11T07:59:03.408Z,91.30
2023-02-11T08:01:30.919Z,90.80
2023-02-11T08:03:59.617Z,91.10
2023-02-11T08:06:29.413Z,91.10
2023-02-11T08:08:56.550Z,91.10
2023-02-11T08:11:28.661Z,90.50
2023-02-11T08:13:56.743Z,90.80
2023-02-11T08:16:27.403Z,90.70
2023-02-11T08:18:57.543Z,90.60
2023-02-11T08:21:25.264Z,90.50
2023-02-11T08:23:52.505Z,90.40
2023-02-11T08:26:26.020Z,90.20
2023-02-11T08:28:55.096Z,90.10
2023-02-11T08:31:25.453Z,90.00
2023-02-11T08:33:54.480Z,89.90
2023-02-11T08:36:25.003Z,89.80
2023-02-11T08:38:58.675Z,89.60
2023-02-11T08:41:30.068Z,89.40
2023-02-11T08:43:58.097Z,89.10
2023-02-11T08:46:25.707Z,88.80
2023-02-11T08:48:53.444Z,88.50
2023-02-11T08:51:24.028Z,88.60
2023-02-11T08:53:51.856Z,88.30
2023-02-11T08:56:20.098Z,87.90
2023-02-11T08:58:47.908Z,87.60
2023-02-11T09:01:17.928Z,87.10
2023-02-11T09:03:45.425Z,87.00
2023-02-11T09:06:13.923Z,86.80
2023-02-11T09:08:46.322Z,86.60
2023-02-11T09:11:13.931Z,85.50
2023-02-11T09:13:42.884Z,86.00
2023-02-11T09:16:22.591Z,85.80
2023-02-11T09:18:50.519Z,85.70
2023-02-11T09:21:19.088Z,85.60
2023-02-11T09:23:47.735Z,85.40
2023-02-11T09:26:14.975Z,85.40
2023-02-11T09:28:42.168Z,85.00
2023-02-11T09:31:11.970Z,84.90
2023-02-11T09:33:42.074Z,84.60
2023-02-11T09:36:09.519Z,84.40
2023-02-11T09:38:36.755Z,84.10
2023-02-11T09:41:07.613Z,83.80
2023-02-11T09:43:55.952Z,83.10
2023-02-11T09:46:25.816Z,82.80
2023-02-11T09:48:55.361Z,82.50
2023-02-11T09:51:39.622Z,82.50
2023-02-11T09:54:37.367Z,82.10
2023-02-11T09:57:06.354Z,81.80
2023-02-11T09:59:33.822Z,82.00
2023-02-11T10:02:12.723Z,81.80
2023-02-11T10:04:39.992Z,81.90
2023-02-11T10:07:26.950Z,82.30
2023-02-11T10:10:25.892Z,82.30
2023-02-11T10:13:19.909Z,82.20
2023-02-11T10:16:06.021Z,82.10
2023-02-11T10:18:59.466Z,82.10
2023-02-11T10:21:58.728Z,76.70
2023-02-11T10:24:28.931Z,74.30
2023-02-11T10:26:56.205Z,73.10
2023-02-11T10:29:44.098Z,69.30
2023-02-11T10:32:49.945Z,69.70
2023-02-11T10:35:21.398Z,68.50
2023-02-11T10:37:49.712Z,66.60
2023-02-11T10:40:23.785Z,64.90
2023-02-11T10:42:55.661Z,63.70
2023-02-11T10:45:26.085Z,64.50
2023-02-11T10:47:53.395Z,66.50
2023-02-11T10:50:25.299Z,70.00
2023-02-11T10:52:53.043Z,68.40
2023-02-11T10:55:24.368Z,67.90
2023-02-11T10:57:58.191Z,65.70
2023-02-11T11:00:28.392Z,63.80
2023-02-11T11:02:58.870Z,65.00
2023-02-11T11:05:58.173Z,67.30
2023-02-11T11:08:40.212Z,68.20
2023-02-11T11:11:10.516Z,69.30
2023-02-11T11:13:41.714Z,68.90
2023-02-11T11:16:34.161Z,68.60
2023-02-11T11:19:07.290Z,67.20
2023-02-11T11:21:45.621Z,64.10
2023-02-11T11:24:20.858Z,63.50
2023-02-11T11:26:54.405Z,64.40
2023-02-11T11:29:33.435Z,64.90
2023-02-11T11:32:25.558Z,65.60
2023-02-11T11:35:00.293Z,65.30
2023-02-11T11:37:33.386Z,62.90
2023-02-11T11:40:29.774Z,55.30
2023-02-11T11:43:14.210Z,49.50
2023-02-11T11:45:56.871Z,50.40
2023-02-11T11:48:37.054Z,51.60
2023-02-11T11:51:11.058Z,56.30
2023-02-11T11:53:45.457Z,61.50
2023-02-11T11:56:20.648Z,64.90
2023-02-11T11:58:48.905Z,67.00
2023-02-11T12:01:27.192Z,61.90
2023-02-11T12:04:21.382Z,57.70
2023-02-11T12:07:17.366Z,57.30
2023-02-11T12:10:02.247Z,54.50
2023-02-11T12:13:11.861Z,54.20
2023-02-11T12:16:13.861Z,54.90
2023-02-11T12:18:44.923Z,56.50
2023-02-11T12:21:25.469Z,50.70
2023-02-11T12:24:23.747Z,49.40
2023-02-11T12:26:59.639Z,46.30
2023-02-11T12:29:45.476Z,39.60
2023-02-11T12:32:21.594Z,39.50
2023-02-11T12:35:21.245Z,35.80
2023-02-11T12:38:15.745Z,36.50
2023-02-11T12:40:48.433Z,34.40
2023-02-11T12:43:24.864Z,34.70
2023-02-11T12:46:10.260Z,37.20
2023-02-11T12:49:02.567Z,35.50
2023-02-11T12:51:54.660Z,36.30
2023-02-11T12:54:25.546Z,33.90
2023-02-11T12:57:11.241Z,34.60
2023-02-11T12:59:55.341Z,35.40
2023-02-11T13:02:37.727Z,37.30
2023-02-11T13:05:23.570Z,38.70
2023-02-11T13:07:53.449Z,37.90
2023-02-11T13:10:34.494Z,37.90
2023-02-11T13:13:16.996Z,39.60
2023-02-11T13:15:55.037Z,42.20
2023-02-11T13:18:36.973Z,44.40
2023-02-11T13:21:16.624Z,46.10
2023-02-11T13:24:19.435Z,46.10
2023-02-11T13:27:03.542Z,47.80
2023-02-11T13:29:38.735Z,49.20
2023-02-11T13:32:07.750Z,50.00
2023-02-11T13:34:40.929Z,48.20
2023-02-11T13:37:26.669Z,47.80
2023-02-11T13:40:19.579Z,47.30
2023-02-11T13:43:02.204Z,41.60
2023-02-11T13:45:37.470Z,37.40
2023-02-11T13:48:38.826Z,35.70
2023-02-11T13:51:09.926Z,35.10
2023-02-11T13:53:56.410Z,38.00
2023-02-11T13:56:34.152Z,39.40
2023-02-11T13:59:05.437Z,37.90
2023-02-11T14:01:39.924Z,39.10
2023-02-11T14:04:41.614Z,39.90
2023-02-11T14:07:49.540Z,40.40
2023-02-11T14:10:41.442Z,41.30
2023-02-11T14:13:32.344Z,44.20
2023-02-11T14:16:35.619Z,45.80
2023-02-11T14:19:05.967Z,46.90
2023-02-11T14:21:41.526Z,48.90
2023-02-11T14:24:12.918Z,49.80
2023-02-11T14:26:56.423Z,50.40
2023-02-11T14:29:42.303Z,50.40
2023-02-11T14:32:27.140Z,49.80
2023-02-11T14:35:16.066Z,51.70
2023-02-11T14:37:55.723Z,51.20
2023-02-11T14:40:40.335Z,53.20
2023-02-11T14:43:47.909Z,54.00
2023-02-11T14:46:17.496Z,56.60
2023-02-11T14:48:48.637Z,56.90
2023-02-11T14:51:31.664Z,59.00
2023-02-11T14:54:22.737Z,59.90
2023-02-11T14:57:13.683Z,60.20
2023-02-11T15:00:02.241Z,60.80
2023-02-11T15:02:37.959Z,61.50
2023-02-11T15:05:26.016Z,61.50
2023-02-11T15:07:55.838Z,62.70
2023-02-11T15:10:28.930Z,64.00
2023-02-11T15:12:57.719Z,65.20
2023-02-11T15:15:26.102Z,65.20
2023-02-11T15:17:54.108Z,65.30
2023-02-11T15:20:29.661Z,66.20
2023-02-11T15:23:02.698Z,66.80
2023-02-11T15:25:32.374Z,67.50
2023-02-11T15:28:01.505Z,68.10
2023-02-11T15:30:33.864Z,68.30
2023-02-11T15:33:05.292Z,68.90
2023-02-11T15:35:38.330Z,69.40
2023-02-11T15:38:06.787Z,70.30
2023-02-11T15:40:36.334Z,70.60
2023-02-11T15:43:07.881Z,70.90
2023-02-11T15:45:52.373Z,71.50
2023-02-11T15:48:28.060Z,71.80
2023-02-11T15:50:58.760Z,72.40
2023-02-11T15:53:36.912Z,72.80
2023-02-11T15:56:43.032Z,73.00
2023-02-11T15:59:38.860Z,73.30
2023-02-11T16:02:20.764Z,74.10
2023-02-11T16:04:59.553Z,74.80
2023-02-11T16:07:41.802Z,75.30
2023-02-11T16:10:21.560Z,75.40
2023-02-11T16:13:07.967Z,76.30
2023-02-11T16:15:35.176Z,76.90
2023-02-11T16:18:06.062Z,77.00
2023-02-11T16:20:34.104Z,77.20
2023-02-11T16:23:02.376Z,77.40
2023-02-11T16:25:29.593Z,77.70
2023-02-11T16:27:56.825Z,77.90
2023-02-11T16:30:31.521Z,79.10
2023-02-11T16:32:58.693Z,78.60
2023-02-11T16:35:26.162Z,78.90
2023-02-11T16:37:54.874Z,79.10
2023-02-11T16:40:23.487Z,79.40
2023-02-11T16:42:52.401Z,79.60
2023-02-11T16:45:19.756Z,79.70
2023-02-11T16:47:47.174Z,79.40
2023-02-11T16:50:25.303Z,79.00
2023-02-11T16:52:52.719Z,79.80
2023-02-11T16:55:21.959Z,79.90
2023-02-11T16:57:49.643Z,80.20
2023-02-11T17:00:20.208Z,80.30
2023-02-11T17:02:47.432Z,80.50
2023-02-11T17:05:20.733Z,80.80
2023-02-11T17:07:48.061Z,81.00
2023-02-11T17:10:18.303Z,81.10
2023-02-11T17:12:45.813Z,81.30
2023-02-11T17:15:13.071Z,81.40
2023-02-11T17:17:40.339Z,81.40
2023-02-11T17:20:09.335Z,81.50
2023-02-11T17:22:36.462Z,81.40
2023-02-11T17:25:03.752Z,81.40
2023-02-11T17:27:30.948Z,81.70
2023-02-11T17:29:58.234Z,81.80
2023-02-11T17:32:25.530Z,82.00
2023-02-11T17:34:53.700Z,82.00
2023-02-11T17:37:20.976Z,81.90
2023-02-11T17:39:49.354Z,82.00
2023-02-11T17:42:19.074Z,82.10
2023-02-11T17:44:46.547Z,82.20
2023-02-11T17:47:13.829Z,82.20
2023-02-11T17:49:41.403Z,82.20
2023-02-11T17:52:08.912Z,82.40
2023-02-11T17:54:37.780Z,82.50
2023-02-11T17:57:05.016Z,82.50
2023-02-11T17:59:35.366Z,82.40
2023-02-11T18:02:04.081Z,82.50
2023-02-11T18:04:32.117Z,82.60
2023-02-11T18:06:59.424Z,82.50
2023-02-11T18:09:27.050Z,82.50
2023-02-11T18:11:54.407Z,82.40
2023-02-11T18:14:22.424Z,82.50
2023-02-11T18:16:51.471Z,82.60
2023-02-11T18:19:19.695Z,82.50
2023-02-11T18:21:48.810Z,82.30
2023-02-11T18:24:16.568Z,82.30
2023-02-11T18:26:44.030Z,82.30
2023-02-11T18:31:39.823Z,81.60
2023-02-11T18:34:07.745Z,82.40
2023-02-11T18:36:35.477Z,82.30
2023-02-11T18:39:03.648Z,82.50
2023-02-11T18:41:30.897Z,81.60
2023-02-11T18:43:58.708Z,82.60
2023-02-11T18:46:26.026Z,82.70
2023-02-11T18:48:56.002Z,82.80
2023-02-11T18:51:24.096Z,82.70
2023-02-11T18:53:51.365Z,82.80
2023-02-11T18:56:21.763Z,82.80
2023-02-11T18:58:51.273Z,82.90
2023-02-11T19:01:21.310Z,83.00
2023-02-11T19:03:48.665Z,83.10
2023-02-11T19:06:17.840Z,83.10
2023-02-11T19:08:45.421Z,83.10
2023-02-11T19:11:13.646Z,83.20
2023-02-11T19:13:40.775Z,83.20
2023-02-11T19:16:11.211Z,83.20
2023-02-11T19:18:38.886Z,83.30
2023-02-11T19:21:11.009Z,83.40
2023-02-11T19:23:38.601Z,83.50
2023-02-11T19:26:06.501Z,83.70
2023-02-11T19:28:35.364Z,83.60
2023-02-11T19:31:07.954Z,83.60
2023-02-11T19:33:35.379Z,83.80
2023-02-11T19:36:05.300Z,83.80
2023-02-11T19:38:32.531Z,83.90
2023-02-11T19:41:00.136Z,82.90
2023-02-11T19:43:27.483Z,83.80
2023-02-11T19:45:56.603Z,83.70
2023-02-11T19:48:24.857Z,83.70
2023-02-11T19:50:52.162Z,83.80
2023-02-11T19:53:19.416Z,83.90
2023-02-11T19:55:47.110Z,83.90
2023-02-11T19:58:15.403Z,83.80
2023-02-11T20:00:43.231Z,83.80
2023-02-11T20:03:10.463Z,83.80
2023-02-11T20:05:42.242Z,83.80
2023-02-11T20:08:09.400Z,83.80
2023-02-11T20:10:36.562Z,83.90
2023-02-11T20:13:03.909Z,83.80
2023-02-11T20:15:31.321Z,83.80
2023-02-11T20:17:58.486Z,84.00
2023-02-11T20:20:25.736Z,83.90
2023-02-11T20:22:52.931Z,84.00
2023-02-11T20:25:20.161Z,84.00
2023-02-11T20:27:47.377Z,84.00
2023-02-11T20:30:14.997Z,84.10
2023-02-11T20:32:42.328Z,84.00
2023-02-11T20:35:12.148Z,84.00
2023-02-11T20:37:41.093Z,83.90
2023-02-11T20:40:09.774Z,83.80
2023-02-11T20:42:36.967Z,83.90
2023-02-11T20:45:04.332Z,84.00
2023-02-11T20:47:31.577Z,83.90
2023-02-11T20:49:58.956Z,84.10
2023-02-11T20:52:26.187Z,84.20
2023-02-11T20:54:53.313Z,84.20
2023-02-11T20:57:20.538Z,85.20
2023-02-11T20:59:47.792Z,84.20
2023-02-11T21:02:15.345Z,84.20
2023-02-11T21:04:42.627Z,84.20
2023-02-11T21:07:09.877Z,84.20
2023-02-11T21:09:37.276Z,84.10
2023-02-11T21:12:05.323Z,84.20
2023-02-11T21:14:33.408Z,84.20
2023-02-11T21:17:00.640Z,84.20
2023-02-11T21:19:27.962Z,84.20
2023-02-11T21:21:57.154Z,84.20
2023-02-11T21:24:24.359Z,84.10
2023-02-11T21:26:51.616Z,84.10
2023-02-11T21:29:18.789Z,84.20
2023-02-11T21:31:46.224Z,84.40
2023-02-11T21:34:14.180Z,84.30
2023-02-11T21:36:41.460Z,84.40
2023-02-11T21:39:08.908Z,85.30
2023-02-11T21:41:36.311Z,84.40
2023-02-11T21:44:03.578Z,84.40
2023-02-11T21:46:31.665Z,84.60
2023-02-11T21:49:00.328Z,84.60
2023-02-11T21:51:28.225Z,84.60
2023-02-11T21:54:01.186Z,84.70
2023-02-11T21:56:30.111Z,84.70
2023-02-11T21:58:58.805Z,84.70
2023-02-11T22:01:29.506Z,84.70
2023-02-11T22:03:57.141Z,84.70
2023-02-11T22:06:27.503Z,85.30
2023-02-11T22:08:55.495Z,85.00
2023-02-11T22:11:23.425Z,85.10
2023-02-11T22:13:55.463Z,85.00
2023-02-11T22:16:23.255Z,85.00
2023-02-11T22:18:51.337Z,85.10
2023-02-11T22:21:21.852Z,85.30
2023-02-11T22:23:50.200Z,85.20
2023-02-11T22:26:22.564Z,85.20
2023-02-11T22:28:50.914Z,85.10
2023-02-11T22:31:36.405Z,84.40
2023-02-11T22:34:05.097Z,85.20
2023-02-11T22:36:40.869Z,85.30
2023-02-11T22:39:11.480Z,85.40
2023-02-11T22:41:40.430Z,84.70
2023-02-11T22:44:08.446Z,85.90
2023-02-11T22:46:36.088Z,85.60
2023-02-11T22:49:04.430Z,85.50
2023-02-11T22:51:32.556Z,85.60
2023-02-11T22:54:02.100Z,85.50
2023-02-11T22:56:31.095Z,85.60
2023-02-11T22:59:00.365Z,85.40
2023-02-11T23:01:29.060Z,85.50
2023-02-11T23:03:58.428Z,85.50
2023-02-11T23:06:25.627Z,85.50
2023-02-11T23:08:53.071Z,85.60
2023-02-11T23:11:26.191Z,85.60
2023-02-11T23:13:54.356Z,85.70
2023-02-11T23:16:24.491Z,85.80
2023-02-11T23:18:52.536Z,85.90
2023-02-11T23:21:26.779Z,85.00
2023-02-11T23:23:56.745Z,85.80
2023-02-11T23:26:24.508Z,86.00
2023-02-11T23:28:52.041Z,86.10
2023-02-11T23:31:21.751Z,86.20
2023-02-11T23:33:49.534Z,86.30
2023-02-11T23:36:17.958Z,86.40
2023-02-11T23:38:45.609Z,86.40
2023-02-11T23:41:13.001Z,86.30
2023-02-11T23:43:40.971Z,86.30
2023-02-11T23:46:09.211Z,86.30
2023-02-11T23:48:37.598Z,86.20
2023-02-11T23:51:05.140Z,86.20
2023-02-11T23:53:32.483Z,86.30
2023-02-11T23:55:59.653Z,86.30
2023-02-11T23:58:26.842Z,86.20
